Time;durP1;ratioP1;P1;durP2;ratioP2;P2;SDS_P1;SDS_P2;PMS_P1;PMS_P2;Temp;Humidity;BMP_temperature;BMP_pressure;BME280_temperature;BME280_humidity;BME280_pressure;Samples;Min_cycle;Max_cycle;Signal;HPM_P1;HPM_P2
2022/04/19 00:00:24;;;;;;;2.13;1.67;;;13.80;51.20;;;;;;5090108;28;20056;-61
2022/04/19 00:02:49;;;;;;;2.58;1.92;;;13.70;51.30;;;;;;5086738;28;20036;-61
2022/04/19 00:05:15;;;;;;;3.63;2.28;;;13.70;51.30;;;;;;5090234;28;20048;-61
2022/04/19 00:07:42;;;;;;;4.90;2.15;;;13.70;51.20;;;;;;5085753;28;20044;-61
2022/04/19 00:10:08;;;;;;;3.58;2.00;;;13.60;51.50;;;;;;5089228;28;20200;-60
2022/04/19 00:12:34;;;;;;;2.97;2.05;;;13.60;51.70;;;;;;5090116;28;20035;-60
2022/04/19 00:15:00;;;;;;;2.30;1.88;;;13.50;51.90;;;;;;5086235;28;20475;-62
2022/04/19 00:17:26;;;;;;;2.45;1.50;;;13.50;51.80;;;;;;5089220;28;20028;-61
2022/04/19 00:19:51;;;;;;;2.42;1.88;;;13.50;52.00;;;;;;5087379;28;20130;-61
2022/04/19 00:22:19;;;;;;;4.07;1.60;;;13.40;52.00;;;;;;5085958;28;20035;-60
2022/04/19 00:24:45;;;;;;;3.72;1.85;;;13.40;52.00;;;;;;5089093;28;20479;-60
2022/04/19 00:27:10;;;;;;;3.15;1.80;;;13.40;52.00;;;;;;5089097;28;20066;-61
2022/04/19 00:29:41;;;;;;;2.90;1.92;;;13.30;52.10;;;;;;5089319;28;20028;-61
2022/04/19 00:32:08;;;;;;;1.60;1.50;;;13.30;52.40;;;;;;5088029;28;20146;-61
2022/04/19 00:34:33;;;;;;;3.78;1.80;;;13.20;52.40;;;;;;5087558;28;20390;-61
2022/04/19 00:37:01;;;;;;;1.77;1.58;;;13.20;52.40;;;;;;5087810;28;20043;-61
2022/04/19 00:39:27;;;;;;;2.85;1.65;;;13.20;52.40;;;;;;5088922;28;20475;-63
2022/04/19 00:41:52;;;;;;;2.83;1.75;;;13.10;52.50;;;;;;5088764;28;20039;-63
2022/04/19 00:44:18;;;;;;;2.50;1.90;;;13.10;52.60;;;;;;5069068;28;20029;-63
2022/04/19 00:46:44;;;;;;;2.35;1.67;;;13.10;52.80;;;;;;5087864;28;20032;-63
2022/04/19 00:49:09;;;;;;;2.22;1.48;;;13.10;52.80;;;;;;5087230;28;20218;-63
2022/04/19 00:51:35;;;;;;;2.72;1.70;;;13.00;52.80;;;;;;5086659;28;20410;-61
2022/04/19 00:54:03;;;;;;;3.20;1.75;;;13.00;52.90;;;;;;5088712;28;20028;-61
2022/04/19 00:56:31;;;;;;;2.58;1.77;;;13.00;52.90;;;;;;5087149;28;20088;-63
2022/04/19 00:58:57;;;;;;;1.70;1.35;;;12.90;52.70;;;;;;5088800;28;20372;-62
2022/04/19 01:01:23;;;;;;;2.58;2.38;;;12.90;52.90;;;;;;5087640;28;20028;-63
2022/04/19 01:03:48;;;;;;;2.60;2.17;;;12.90;52.80;;;;;;5083061;28;20037;-61
2022/04/19 01:06:14;;;;;;;2.10;1.90;;;12.90;52.80;;;;;;5077970;28;20150;-63
2022/04/19 01:08:42;;;;;;;2.58;1.70;;;12.90;52.80;;;;;;5088334;28;20024;-63
2022/04/19 01:13:53;;;;;;;5.88;2.35;;;12.80;52.90;;;;;;5086830;28;20043;-62
2022/04/19 01:16:18;;;;;;;1.45;1.30;;;12.80;53.00;;;;;;5070684;28;20059;-62
2022/04/19 01:18:44;;;;;;;2.90;2.22;;;12.70;52.90;;;;;;5087654;28;20116;-62
2022/04/19 01:21:10;;;;;;;2.05;1.85;;;12.70;53.10;;;;;;5086734;28;20051;-63
2022/04/19 01:23:39;;;;;;;1.75;1.40;;;12.70;52.90;;;;;;5085589;28;20109;-63
2022/04/19 01:26:06;;;;;;;1.90;1.67;;;12.60;53.00;;;;;;5074870;28;20032;-61
2022/04/19 01:28:32;;;;;;;2.05;1.85;;;12.60;53.10;;;;;;5084858;28;20063;-61
2022/04/19 01:30:58;;;;;;;1.92;1.83;;;12.60;53.20;;;;;;5088147;28;20105;-61
2022/04/19 01:33:24;;;;;;;5.18;2.25;;;12.50;53.20;;;;;;5088003;28;20044;-61
2022/04/19 01:35:50;;;;;;;1.95;1.77;;;12.50;53.20;;;;;;5087973;28;20063;-61
2022/04/19 01:38:16;;;;;;;1.88;1.55;;;12.50;53.40;;;;;;5085224;28;20111;-61
2022/04/19 01:40:41;;;;;;;3.28;2.00;;;12.50;53.50;;;;;;5086836;28;20025;-61
2022/04/19 01:43:07;;;;;;;7.30;2.83;;;12.40;53.50;;;;;;5084465;28;20035;-61
2022/04/19 01:45:34;;;;;;;2.03;1.67;;;12.40;53.60;;;;;;5073583;28;20043;-61
2022/04/19 01:48:01;;;;;;;3.72;1.80;;;12.30;53.60;;;;;;5086194;28;20105;-61
2022/04/19 01:50:29;;;;;;;3.97;2.15;;;12.30;53.70;;;;;;5085707;28;20028;-61
2022/04/19 01:52:56;;;;;;;1.80;1.70;;;12.30;53.70;;;;;;5088112;28;20043;-62
2022/04/19 01:55:22;;;;;;;2.17;1.90;;;12.20;53.80;;;;;;5086515;28;20032;-61
2022/04/19 01:57:52;;;;;;;2.92;2.05;;;12.20;53.90;;;;;;5085935;28;20382;-61
2022/04/19 02:00:19;;;;;;;2.17;1.55;;;12.20;54.00;;;;;;5085243;28;20451;-61
2022/04/19 02:02:47;;;;;;;2.65;1.85;;;12.10;54.10;;;;;;5087627;28;20031;-63
2022/04/19 02:05:14;;;;;;;2.03;1.83;;;12.10;54.20;;;;;;5085771;28;20402;-63
2022/04/19 02:07:44;;;;;;;2.85;1.98;;;12.10;54.20;;;;;;5087063;28;20055;-63
2022/04/19 02:10:12;;;;;;;4.63;1.80;;;12.00;54.10;;;;;;5084317;28;20036;-63
2022/04/19 02:12:41;;;;;;;2.47;2.20;;;12.00;54.20;;;;;;5087713;28;20039;-62
2022/04/19 02:15:08;;;;;;;4.30;2.55;;;11.90;54.30;;;;;;5085712;28;20038;-63
2022/04/19 02:17:34;;;;;;;3.55;1.83;;;11.90;54.30;;;;;;5086858;28;20031;-63
2022/04/19 02:20:06;;;;;;;2.33;1.80;;;11.80;54.30;;;;;;5087738;28;20062;-63
2022/04/19 02:22:33;;;;;;;2.45;1.95;;;11.80;54.50;;;;;;5080838;28;20039;-63
2022/04/19 02:24:59;;;;;;;2.58;2.00;;;11.80;54.60;;;;;;5087330;28;20028;-63
2022/04/19 02:27:31;;;;;;;3.20;2.10;;;11.70;54.70;;;;;;5085744;28;20036;-63
2022/04/19 02:29:57;;;;;;;2.50;1.58;;;11.70;54.90;;;;;;5086106;28;20043;-63
2022/04/19 02:32:23;;;;;;;2.60;1.67;;;11.60;55.00;;;;;;5084650;28;20119;-62
2022/04/19 02:34:54;;;;;;;2.83;2.50;;;11.60;55.00;;;;;;5073463;28;20032;-63
2022/04/19 02:37:20;;;;;;;1.95;1.73;;;11.60;55.00;;;;;;5078337;28;20032;-62
2022/04/19 02:39:46;;;;;;;2.92;1.92;;;11.50;55.20;;;;;;5084871;28;20043;-62
2022/04/19 02:42:12;;;;;;;3.00;1.92;;;11.50;55.20;;;;;;5086337;28;20040;-63
2022/04/19 02:44:38;;;;;;;2.90;1.70;;;11.40;55.10;;;;;;5086255;28;20502;-63
2022/04/19 02:47:04;;;;;;;4.07;2.53;;;11.40;55.10;;;;;;5087089;28;20383;-63
2022/04/19 02:49:30;;;;;;;2.88;2.10;;;11.40;55.30;;;;;;5084330;28;20083;-63
2022/04/19 02:51:56;;;;;;;2.70;2.05;;;11.30;55.20;;;;;;5081949;28;20121;-63
2022/04/19 02:54:22;;;;;;;3.67;2.25;;;11.30;55.30;;;;;;5085693;28;20032;-63
2022/04/19 02:56:47;;;;;;;2.60;1.95;;;11.30;55.20;;;;;;5085494;28;20040;-62
2022/04/19 02:59:13;;;;;;;3.55;2.45;;;11.20;55.40;;;;;;5080624;28;20047;-60
2022/04/19 03:01:39;;;;;;;2.83;1.98;;;11.20;55.50;;;;;;5086299;28;20074;-60
2022/04/19 03:04:05;;;;;;;4.68;2.38;;;11.20;55.60;;;;;;5076049;28;20086;-60
2022/04/19 03:06:31;;;;;;;2.17;1.98;;;11.10;55.60;;;;;;5085344;28;20107;-62
2022/04/19 03:08:57;;;;;;;5.35;2.38;;;11.10;55.60;;;;;;5087056;28;20028;-61
2022/04/19 03:11:22;;;;;;;8.77;2.67;;;11.10;55.80;;;;;;5087885;28;20419;-60
2022/04/19 03:13:48;;;;;;;2.97;1.65;;;11.10;55.80;;;;;;5079510;28;20044;-62
2022/04/19 03:16:14;;;;;;;2.75;2.13;;;11.10;55.90;;;;;;5089041;28;20387;-62
2022/04/19 03:18:43;;;;;;;2.15;1.70;;;11.00;55.90;;;;;;5091559;28;20032;-60
2022/04/19 03:21:13;;;;;;;2.25;2.05;;;11.00;56.00;;;;;;5089309;28;20494;-62
2022/04/19 03:29:09;;;;;;;2.65;1.70;;;10.90;56.70;;;;;;5090876;28;20074;-63
2022/04/19 03:31:35;;;;;;;3.72;2.45;;;10.90;56.80;;;;;;5089986;28;20028;-63
2022/04/19 03:34:05;;;;;;;2.70;2.15;;;10.90;56.90;;;;;;5089780;28;20528;-62
2022/04/19 03:36:31;;;;;;;3.28;2.22;;;10.80;56.90;;;;;;5088546;28;20034;-62
2022/04/19 03:38:58;;;;;;;3.88;2.33;;;10.80;56.80;;;;;;5090511;28;20031;-62
2022/04/19 03:41:24;;;;;;;4.20;2.15;;;10.80;56.80;;;;;;5091150;28;20073;-60
2022/04/19 03:43:51;;;;;;;3.40;2.60;;;10.80;56.90;;;;;;5088584;28;20487;-60
2022/04/19 03:46:17;;;;;;;3.00;2.42;;;10.80;57.30;;;;;;5090577;28;20073;-60
2022/04/19 03:48:43;;;;;;;2.53;2.30;;;10.80;57.30;;;;;;5088690;28;20035;-61
2022/04/19 03:51:09;;;;;;;4.47;2.17;;;10.80;57.30;;;;;;5074766;28;20020;-60
2022/04/19 03:53:35;;;;;;;3.03;2.17;;;10.70;57.50;;;;;;5088425;28;20035;-63
2022/04/19 03:56:03;;;;;;;5.95;2.72;;;10.70;57.60;;;;;;5089336;28;20482;-63
2022/04/19 03:58:32;;;;;;;4.78;2.33;;;10.70;57.80;;;;;;5089934;28;20561;-62
2022/04/19 04:00:58;;;;;;;1.92;1.58;;;10.70;57.90;;;;;;5090075;28;20020;-63
2022/04/19 04:03:24;;;;;;;2.45;2.25;;;10.70;57.80;;;;;;5089005;28;20028;-63
2022/04/19 04:05:50;;;;;;;2.38;1.95;;;10.70;57.80;;;;;;5089242;28;20055;-63
2022/04/19 04:08:16;;;;;;;2.95;2.42;;;10.60;58.00;;;;;;5086838;28;20117;-63
2022/04/19 04:10:42;;;;;;;3.38;2.42;;;10.60;58.10;;;;;;5090732;28;20339;-63
2022/04/19 04:13:07;;;;;;;2.85;2.30;;;10.60;58.30;;;;;;5088286;28;20134;-63
2022/04/19 04:15:33;;;;;;;5.30;2.33;;;10.60;58.30;;;;;;5088432;28;20064;-63
2022/04/19 04:17:59;;;;;;;4.57;2.45;;;10.50;58.30;;;;;;5088383;28;20499;-62
2022/04/19 04:20:25;;;;;;;3.28;2.28;;;10.50;58.40;;;;;;5090593;28;20047;-62
2022/04/19 04:22:51;;;;;;;3.25;2.35;;;10.50;58.50;;;;;;5089524;28;20081;-62
2022/04/19 04:25:16;;;;;;;4.40;2.03;;;10.50;58.60;;;;;;5088512;28;20028;-63
2022/04/19 04:27:42;;;;;;;2.10;1.73;;;10.40;58.60;;;;;;5086874;28;20093;-63
2022/04/19 04:30:08;;;;;;;2.65;2.35;;;10.40;59.50;;;;;;5087601;28;20107;-64
2022/04/19 04:32:34;;;;;;;3.30;2.20;;;10.40;59.00;;;;;;5076718;28;20051;-64
2022/04/19 04:34:59;;;;;;;3.38;2.33;;;10.30;59.10;;;;;;5081528;28;20036;-64
2022/04/19 04:37:25;;;;;;;2.47;2.03;;;10.30;59.30;;;;;;5087924;28;20546;-63
2022/04/19 04:39:51;;;;;;;2.28;2.00;;;10.30;59.30;;;;;;5090031;28;20077;-63
2022/04/19 04:42:16;;;;;;;6.70;2.63;;;10.30;59.30;;;;;;5087329;28;20062;-63
2022/04/19 04:44:42;;;;;;;2.83;1.73;;;10.20;59.30;;;;;;5088810;28;20479;-61
2022/04/19 04:49:52;;;;;;;2.80;2.28;;;10.20;59.60;;;;;;5088619;28;20457;-61
2022/04/19 04:52:18;;;;;;;1.60;1.50;;;10.20;59.70;;;;;;5087240;28;20197;-63
2022/04/19 04:54:44;;;;;;;1.95;1.35;;;10.20;59.70;;;;;;5088001;28;20032;-62
2022/04/19 04:57:10;;;;;;;2.15;1.85;;;10.20;59.90;;;;;;5089647;28;20528;-61
2022/04/19 04:59:36;;;;;;;2.42;2.00;;;10.20;60.00;;;;;;5089140;28;21282;-60
2022/04/19 05:02:03;;;;;;;3.53;1.50;;;10.20;60.10;;;;;;5084868;28;20058;-62
2022/04/19 05:04:29;;;;;;;2.60;2.33;;;10.20;60.20;;;;;;5087812;28;20465;-60
2022/04/19 05:06:55;;;;;;;1.65;1.35;;;10.20;60.30;;;;;;5085633;28;20056;-61
2022/04/19 05:09:21;;;;;;;3.08;1.95;;;10.20;60.40;;;;;;5086590;28;20051;-61
2022/04/19 05:11:50;;;;;;;2.05;1.88;;;10.20;60.50;;;;;;5087982;28;20027;-61
2022/04/19 05:14:16;;;;;;;2.55;2.22;;;10.20;60.70;;;;;;5088074;28;20032;-60
2022/04/19 05:16:42;;;;;;;1.67;1.40;;;10.20;60.80;;;;;;5089148;28;20501;-61
2022/04/19 05:19:08;;;;;;;2.80;1.48;;;10.20;60.90;;;;;;5088149;28;20107;-61
2022/04/19 05:21:37;;;;;;;2.00;1.60;;;10.20;61.20;;;;;;5088910;28;20024;-61
2022/04/19 05:24:07;;;;;;;5.57;2.28;;;10.20;61.30;;;;;;5083071;28;20032;-61
2022/04/19 05:26:33;;;;;;;6.63;1.80;;;10.30;61.30;;;;;;5078461;28;20051;-61
2022/04/19 05:28:58;;;;;;;3.45;1.85;;;10.30;61.50;;;;;;5087375;28;20036;-61
2022/04/19 05:31:24;;;;;;;1.80;1.48;;;10.30;61.50;;;;;;5088424;28;20039;-62
2022/04/19 05:33:50;;;;;;;3.53;1.77;;;10.30;61.50;;;;;;5088726;28;20532;-61
2022/04/19 05:36:16;;;;;;;1.45;1.35;;;10.30;61.60;;;;;;5086582;28;20032;-61
2022/04/19 05:38:42;;;;;;;1.40;1.30;;;10.40;61.70;;;;;;5089329;28;20364;-61
2022/04/19 05:41:08;;;;;;;1.95;1.60;;;10.40;61.80;;;;;;5089110;28;20428;-61
2022/04/19 05:43:33;;;;;;;1.23;1.15;;;10.50;61.80;;;;;;5086571;28;20024;-61
2022/04/19 05:45:59;;;;;;;2.25;1.10;;;10.60;61.80;;;;;;5086494;28;20494;-61
2022/04/19 05:48:25;;;;;;;1.70;1.20;;;10.60;61.80;;;;;;5086096;28;20031;-61
2022/04/19 05:50:51;;;;;;;1.83;1.33;;;10.60;61.70;;;;;;5088584;28;20111;-60
2022/04/19 05:53:17;;;;;;;2.25;1.70;;;10.70;61.60;;;;;;5087286;28;20467;-61
2022/04/19 05:55:43;;;;;;;1.83;1.60;;;10.80;61.50;;;;;;5087998;28;20110;-63
2022/04/19 05:58:08;;;;;;;1.98;1.88;;;10.80;61.20;;;;;;5086316;28;20097;-62
2022/04/19 06:00:34;;;;;;;1.85;1.52;;;10.90;60.90;;;;;;5089088;28;20122;-62
2022/04/19 06:05:44;;;;;;;2.45;1.35;;;11.10;60.40;;;;;;5088022;28;20092;-63
2022/04/19 06:08:10;;;;;;;3.30;1.50;;;11.20;60.10;;;;;;5086531;28;20406;-62
2022/04/19 06:10:36;;;;;;;2.47;1.50;;;11.30;59.90;;;;;;5087229;28;20081;-60
2022/04/19 06:13:02;;;;;;;2.45;1.27;;;11.40;59.50;;;;;;5087033;28;20410;-61
2022/04/19 06:15:28;;;;;;;5.90;1.55;;;11.50;59.30;;;;;;5087068;28;20024;-63
2022/04/19 06:17:53;;;;;;;1.10;0.90;;;11.60;59.10;;;;;;5085370;28;20085;-64
2022/04/19 06:20:19;;;;;;;1.33;1.15;;;11.70;58.90;;;;;;5088623;28;20452;-63
2022/04/19 06:22:45;;;;;;;1.40;0.98;;;11.70;58.60;;;;;;5088130;28;20027;-61
2022/04/19 06:25:12;;;;;;;1.65;1.55;;;11.80;58.00;;;;;;5087237;28;20036;-61
2022/04/19 06:27:39;;;;;;;1.73;1.27;;;11.90;57.90;;;;;;5084986;28;20153;-60
2022/04/19 06:30:05;;;;;;;1.77;1.35;;;11.90;57.70;;;;;;5086671;28;20028;-61
2022/04/19 06:32:30;;;;;;;3.83;1.88;;;12.00;57.40;;;;;;5081433;28;20411;-62
2022/04/19 06:34:56;;;;;;;4.68;1.40;;;12.10;57.30;;;;;;5068457;28;20028;-62
2022/04/19 06:37:22;;;;;;;3.47;1.25;;;12.20;57.10;;;;;;5087293;28;20078;-63
2022/04/19 06:39:49;;;;;;;1.90;1.40;;;12.20;56.80;;;;;;5087603;28;20021;-63
2022/04/19 06:42:15;;;;;;;1.65;1.50;;;12.30;56.60;;;;;;5088632;28;20439;-60
2022/04/19 06:44:40;;;;;;;1.40;1.30;;;12.40;56.40;;;;;;5087295;28;20036;-60
2022/04/19 06:47:07;;;;;;;1.50;1.40;;;12.40;56.10;;;;;;5085728;28;20032;-60
2022/04/19 06:49:33;;;;;;;1.50;1.05;;;12.50;56.00;;;;;;5089874;28;20089;-60
2022/04/19 06:51:59;;;;;;;3.05;2.00;;;12.60;56.00;;;;;;5091232;28;20592;-61
2022/04/19 06:54:25;;;;;;;2.25;1.55;;;12.60;55.70;;;;;;5090760;28;20839;-61
2022/04/19 06:56:50;;;;;;;2.60;1.88;;;12.70;55.60;;;;;;5088874;28;20028;-59
2022/04/19 06:59:16;;;;;;;5.68;1.77;;;12.80;55.40;;;;;;5090472;28;20032;-60
2022/04/19 07:01:43;;;;;;;2.88;1.98;;;12.90;55.40;;;;;;5091139;28;20447;-60
2022/04/19 07:04:09;;;;;;;1.60;0.85;;;13.00;55.00;;;;;;5091718;28;20031;-63
2022/04/19 07:06:35;;;;;;;2.40;1.40;;;13.00;54.60;;;;;;5089876;28;20040;-63
2022/04/19 07:09:01;;;;;;;2.63;1.38;;;13.10;54.40;;;;;;5091394;28;20067;-60
2022/04/19 07:11:27;;;;;;;2.00;0.85;;;13.20;54.40;;;;;;5086430;28;20042;-61
2022/04/19 07:13:54;;;;;;;1.98;1.55;;;13.30;53.90;;;;;;5088523;28;20020;-60
2022/04/19 07:16:20;;;;;;;2.55;1.52;;;13.30;53.50;;;;;;5087449;28;20073;-60
2022/04/19 07:18:45;;;;;;;2.28;1.35;;;13.40;53.50;;;;;;5091666;28;20471;-62
2022/04/19 07:26:42;;;;;;;2.88;1.27;;;13.60;52.40;;;;;;5089434;28;20070;-62
2022/04/19 07:29:10;;;;;;;1.30;0.80;;;13.70;52.30;;;;;;5087281;28;20071;-63
2022/04/19 07:31:40;;;;;;;2.25;1.42;;;13.70;52.10;;;;;;5089577;28;20024;-63
2022/04/19 07:34:06;;;;;;;2.58;1.73;;;13.80;51.80;;;;;;5088987;28;20032;-63
2022/04/19 07:36:33;;;;;;;2.25;1.80;;;13.90;51.50;;;;;;5084754;28;20054;-63
2022/04/19 07:38:59;;;;;;;2.30;1.50;;;14.00;51.50;;;;;;5082294;28;20036;-60
2022/04/19 07:41:25;;;;;;;1.63;1.00;;;14.10;51.20;;;;;;5085436;28;20032;-60
2022/04/19 07:43:52;;;;;;;1.52;1.17;;;14.10;51.10;;;;;;5085481;28;20568;-61
2022/04/19 07:46:18;;;;;;;3.53;1.10;;;14.20;51.10;;;;;;5089851;28;20028;-63
2022/04/19 07:48:45;;;;;;;2.78;1.40;;;14.30;50.90;;;;;;5081461;28;20017;-63
2022/04/19 07:51:11;;;;;;;2.95;1.35;;;14.40;50.90;;;;;;5086915;28;20092;-61
2022/04/19 07:53:37;;;;;;;1.92;1.25;;;14.40;50.10;;;;;;5089388;28;20036;-63
2022/04/19 07:56:03;;;;;;;3.78;1.42;;;14.40;50.00;;;;;;5084103;28;20036;-63
2022/04/19 07:58:29;;;;;;;2.53;1.40;;;14.50;49.50;;;;;;5083520;28;20035;-63
2022/04/19 08:00:55;;;;;;;2.47;1.23;;;14.60;49.70;;;;;;5078999;28;20147;-63
2022/04/19 08:03:21;;;;;;;1.75;1.25;;;14.60;49.60;;;;;;5088133;28;20024;-64
2022/04/19 08:05:47;;;;;;;1.92;1.27;;;14.70;49.40;;;;;;5087486;28;20394;-63
2022/04/19 08:08:13;;;;;;;1.85;0.80;;;14.80;49.50;;;;;;5087888;28;20514;-63
2022/04/19 08:10:38;;;;;;;1.15;1.05;;;14.80;49.50;;;;;;5085732;28;20108;-61
2022/04/19 08:13:04;;;;;;;1.83;1.02;;;14.80;49.00;;;;;;5085164;28;20036;-63
2022/04/19 08:15:31;;;;;;;1.58;1.20;;;14.90;49.00;;;;;;5079132;28;20032;-62
2022/04/19 08:17:57;;;;;;;1.85;1.13;;;15.00;48.60;;;;;;5089779;28;20039;-62
2022/04/19 08:20:24;;;;;;;2.38;1.27;;;15.00;48.30;;;;;;5083813;28;20383;-60
2022/04/19 08:22:50;;;;;;;2.00;1.17;;;15.10;48.20;;;;;;5081941;28;20565;-59
2022/04/19 08:25:15;;;;;;;2.55;0.90;;;15.10;48.20;;;;;;5085246;28;20020;-61
2022/04/19 08:27:46;;;;;;;3.45;1.17;;;15.10;47.90;;;;;;5090449;28;20113;-63
2022/04/19 08:30:16;;;;;;;1.85;1.20;;;15.10;47.80;;;;;;5077103;28;20066;-63
2022/04/19 08:32:44;;;;;;;2.63;1.30;;;15.20;47.90;;;;;;5076751;28;20325;-60
2022/04/19 08:35:10;;;;;;;2.63;1.05;;;15.20;47.90;;;;;;5084386;28;20258;-60
2022/04/19 08:37:36;;;;;;;1.55;1.20;;;15.20;48.00;;;;;;5085589;28;20032;-62
2022/04/19 08:40:04;;;;;;;2.72;1.10;;;15.30;48.10;;;;;;5081449;28;20028;-60
2022/04/19 08:42:30;;;;;;;1.63;0.93;;;15.40;48.70;;;;;;5073957;28;20035;-60
2022/04/19 08:44:59;;;;;;;1.02;0.98;;;15.40;48.00;;;;;;5077180;28;20099;-60
2022/04/19 08:47:25;;;;;;;4.25;1.50;;;15.50;48.00;;;;;;5085549;28;20025;-60
2022/04/19 08:49:54;;;;;;;1.92;1.50;;;15.60;47.50;;;;;;5082641;28;20082;-60
2022/04/19 08:52:20;;;;;;;1.92;1.30;;;15.70;47.30;;;;;;5078974;28;20088;-64
2022/04/19 08:57:31;;;;;;;1.45;0.95;;;15.70;46.80;;;;;;5087379;28;20058;-63
2022/04/19 08:59:58;;;;;;;2.30;0.98;;;15.70;46.80;;;;;;5089184;28;20032;-61
2022/04/19 09:02:29;;;;;;;3.15;1.00;;;15.80;46.90;;;;;;5088767;28;20487;-61
2022/04/19 09:05:11;;;;;;;1.70;1.33;;;15.80;46.70;;;;;;5089983;28;20043;-60
2022/04/19 09:07:37;;;;;;;1.37;1.20;;;15.90;46.50;;;;;;5090230;28;20063;-61
2022/04/19 09:10:03;;;;;;;1.27;1.17;;;15.90;46.70;;;;;;5089898;28;20081;-61
2022/04/19 09:12:29;;;;;;;1.90;0.95;;;16.00;46.40;;;;;;5088950;28;20056;-62
2022/04/19 09:15:06;;;;;;;2.25;0.90;;;16.10;46.50;;;;;;5089209;28;20062;-64
2022/04/19 09:17:42;;;;;;;2.28;1.33;;;16.20;46.50;;;;;;5089894;28;20036;-60
2022/04/19 09:20:20;;;;;;;1.77;1.10;;;16.30;46.20;;;;;;5089635;28;20082;-60
2022/04/19 09:22:48;;;;;;;1.23;1.00;;;16.40;46.00;;;;;;5090003;28;20052;-62
2022/04/19 09:25:18;;;;;;;3.53;1.35;;;16.40;45.60;;;;;;5087887;28;20099;-60
2022/04/19 09:27:46;;;;;;;1.10;0.98;;;16.50;45.70;;;;;;5089674;28;20028;-62
2022/04/19 09:30:22;;;;;;;2.58;1.23;;;16.50;45.60;;;;;;5087264;28;20038;-63
2022/04/19 09:33:08;;;;;;;1.25;1.15;;;16.60;45.80;;;;;;5082933;28;20031;-60
2022/04/19 09:35:40;;;;;;;1.58;0.77;;;16.70;45.10;;;;;;5068958;28;20380;-60
2022/04/19 09:38:10;;;;;;;2.20;0.90;;;16.80;45.10;;;;;;5084711;28;20340;-60
2022/04/19 09:40:46;;;;;;;1.17;0.73;;;16.90;44.80;;;;;;5081387;28;20069;-60
2022/04/19 09:43:24;;;;;;;1.20;1.10;;;17.00;44.70;;;;;;5076030;28;20025;-60
2022/04/19 09:45:58;;;;;;;1.30;0.68;;;17.10;44.60;;;;;;5072124;28;20025;-63
2022/04/19 09:48:34;;;;;;;1.60;0.80;;;17.20;43.80;;;;;;5079567;28;20024;-64
2022/04/19 09:51:07;;;;;;;0.85;0.85;;;17.30;43.70;;;;;;5069891;28;20024;-61
2022/04/19 09:53:49;;;;;;;2.78;1.13;;;17.40;43.60;;;;;;5072205;28;20322;-61
2022/04/19 09:56:21;;;;;;;2.13;0.80;;;17.50;43.40;;;;;;5072236;28;20028;-63
2022/04/19 09:58:51;;;;;;;1.30;1.20;;;17.50;43.40;;;;;;5069736;28;20055;-61
2022/04/19 10:09:34;;;;;;;2.28;1.55;;;18.00;43.10;;;;;;5068673;28;20033;-61
2022/04/19 10:12:05;;;;;;;2.88;1.00;;;18.10;43.00;;;;;;5068785;28;20044;-61
2022/04/19 10:14:32;;;;;;;1.98;1.15;;;18.20;42.70;;;;;;5068161;28;20016;-63
2022/04/19 10:16:58;;;;;;;3.25;1.58;;;18.20;42.40;;;;;;5068817;28;20499;-63
2022/04/19 10:19:25;;;;;;;2.05;1.35;;;18.30;42.50;;;;;;5068802;28;20031;-60
2022/04/19 10:21:52;;;;;;;2.92;1.77;;;18.30;42.60;;;;;;5084396;28;20035;-60
2022/04/19 10:24:18;;;;;;;2.35;1.50;;;18.40;42.60;;;;;;5086902;28;20020;-60
2022/04/19 10:26:48;;;;;;;2.75;1.63;;;18.40;42.40;;;;;;5072472;28;20173;-63
2022/04/19 10:29:22;;;;;;;1.23;1.13;;;18.50;42.50;;;;;;5087629;28;20101;-63
2022/04/19 10:32:03;;;;;;;1.77;1.38;;;18.60;42.10;;;;;;5072846;28;20111;-63
2022/04/19 10:34:32;;;;;;;3.85;1.33;;;18.70;42.10;;;;;;5087589;28;20028;-63
2022/04/19 10:37:19;;;;;;;1.52;1.23;;;18.80;42.10;;;;;;5072547;28;20020;-62
2022/04/19 10:39:55;;;;;;;2.50;0.95;;;18.90;41.70;;;;;;5080800;28;20024;-63
2022/04/19 10:42:32;;;;;;;1.73;1.25;;;19.00;41.60;;;;;;5084011;28;20411;-64
2022/04/19 10:45:18;;;;;;;1.83;0.95;;;19.10;41.30;;;;;;5086835;28;20089;-64
2022/04/19 10:47:53;;;;;;;1.67;0.95;;;19.20;40.70;;;;;;5072816;28;20036;-63
2022/04/19 10:50:35;;;;;;;3.33;1.52;;;19.20;41.00;;;;;;5080833;28;20558;-61
2022/04/19 10:53:03;;;;;;;1.40;1.30;;;19.30;40.80;;;;;;5087736;28;20024;-61
2022/04/19 10:55:30;;;;;;;0.95;0.88;;;19.40;40.50;;;;;;5078709;28;20036;-61
2022/04/19 10:58:07;;;;;;;2.47;1.50;;;19.40;40.60;;;;;;5072449;28;20029;-61
2022/04/19 11:00:42;;;;;;;1.60;1.20;;;19.60;40.70;;;;;;5082587;28;20589;-61
2022/04/19 11:03:10;;;;;;;6.25;0.98;;;19.60;40.10;;;;;;5082392;28;20095;-61
2022/04/19 11:05:53;;;;;;;3.22;2.00;;;19.70;40.30;;;;;;5082322;28;20020;-61
2022/04/19 11:08:25;;;;;;;1.98;1.63;;;19.90;40.20;;;;;;5074775;28;20555;-61
2022/04/19 11:11:03;;;;;;;1.73;1.13;;;19.90;39.90;;;;;;5072399;28;20398;-64
2022/04/19 11:13:36;;;;;;;2.55;1.50;;;19.90;39.80;;;;;;5071362;28;20501;-64
2022/04/19 11:16:05;;;;;;;1.73;1.25;;;20.00;39.60;;;;;;5071342;28;20544;-63
2022/04/19 11:18:35;;;;;;;1.20;0.80;;;20.10;39.90;;;;;;5071645;28;20044;-63
2022/04/19 11:21:06;;;;;;;1.50;1.20;;;20.20;39.60;;;;;;5071717;28;20025;-64
2022/04/19 11:23:50;;;;;;;1.55;0.88;;;20.30;39.70;;;;;;5071717;28;20380;-63
2022/04/19 11:26:33;;;;;;;1.35;1.10;;;20.50;39.30;;;;;;5070265;28;20480;-63
2022/04/19 11:29:08;;;;;;;1.20;1.10;;;20.50;39.20;;;;;;5071128;28;20540;-63
2022/04/19 11:31:43;;;;;;;2.42;1.50;;;20.70;39.20;;;;;;5071733;28;20039;-61
2022/04/19 11:34:12;;;;;;;0.60;0.57;;;20.80;39.00;;;;;;5082763;28;20443;-60
2022/04/19 11:36:38;;;;;;;2.08;1.00;;;21.00;39.30;;;;;;5091587;28;20035;-61
2022/04/19 11:39:04;;;;;;;1.73;1.30;;;21.00;37.60;;;;;;5075723;28;20025;-61
2022/04/19 11:46:48;;;;;;;2.80;1.48;;;21.20;38.30;;;;;;5071777;28;20048;-61
2022/04/19 11:49:19;;;;;;;1.85;1.48;;;21.30;38.20;;;;;;5071252;28;20032;-64
2022/04/19 11:52:11;;;;;;;2.15;1.30;;;21.40;38.50;;;;;;5071343;28;20082;-61
2022/04/19 11:54:39;;;;;;;4.00;1.20;;;21.50;37.60;;;;;;5068811;28;20585;-63
2022/04/19 11:57:10;;;;;;;2.35;1.45;;;21.50;37.50;;;;;;5071269;28;20379;-63
2022/04/19 11:59:39;;;;;;;2.65;1.15;;;21.50;37.50;;;;;;5071282;28;20039;-64
2022/04/19 12:02:19;;;;;;;1.02;0.88;;;21.60;37.60;;;;;;5071376;28;20034;-64
2022/04/19 12:04:56;;;;;;;0.82;0.82;;;21.70;37.30;;;;;;5070540;28;20032;-63
2022/04/19 12:07:24;;;;;;;1.13;1.02;;;21.80;37.40;;;;;;5070713;28;20139;-63
2022/04/19 12:09:51;;;;;;;1.13;0.95;;;21.90;37.40;;;;;;5071072;28;20071;-63
2022/04/19 12:12:19;;;;;;;1.65;1.00;;;22.00;37.40;;;;;;5079345;28;20067;-63
2022/04/19 12:14:52;;;;;;;2.08;1.05;;;22.10;37.00;;;;;;5080196;28;20093;-63
2022/04/19 12:17:22;;;;;;;1.65;1.00;;;22.20;37.00;;;;;;5077515;28;20031;-63
2022/04/19 12:19:59;;;;;;;0.60;0.60;;;22.30;36.90;;;;;;5079109;28;20490;-63
2022/04/19 12:22:24;;;;;;;1.52;1.20;;;22.30;36.90;;;;;;5089623;28;20024;-61
2022/04/19 12:24:57;;;;;;;0.82;0.80;;;22.40;36.70;;;;;;5085919;28;20032;-61
2022/04/19 12:27:28;;;;;;;0.82;0.80;;;22.40;36.90;;;;;;5090451;28;20028;-61
2022/04/19 12:30:04;;;;;;;0.98;0.75;;;22.50;37.00;;;;;;5082479;28;20032;-61
2022/04/19 12:32:57;;;;;;;1.17;0.80;;;22.70;37.10;;;;;;5085145;28;20031;-61
2022/04/19 12:35:34;;;;;;;1.10;1.00;;;22.90;36.40;;;;;;5083916;28;20024;-61
2022/04/19 12:38:07;;;;;;;0.90;0.73;;;23.00;36.60;;;;;;5076749;28;20472;-60
2022/04/19 12:40:34;;;;;;;1.17;0.90;;;23.10;36.30;;;;;;5084155;28;20364;-63
2022/04/19 12:43:00;;;;;;;0.73;0.73;;;23.10;35.30;;;;;;5082041;28;20043;-63
2022/04/19 12:45:35;;;;;;;0.45;0.45;;;23.20;35.90;;;;;;5084086;28;20036;-60
2022/04/19 12:48:02;;;;;;;1.10;0.98;;;23.30;36.20;;;;;;5082455;28;20442;-61
2022/04/19 12:50:29;;;;;;;1.33;1.17;;;23.30;36.30;;;;;;5083094;28;20383;-61
2022/04/19 12:52:55;;;;;;;1.38;0.95;;;23.40;35.90;;;;;;5078704;28;20020;-61
2022/04/19 12:55:31;;;;;;;1.85;1.02;;;23.40;36.00;;;;;;5083440;28;20040;-61
2022/04/19 12:58:08;;;;;;;1.20;1.10;;;23.40;36.00;;;;;;5085701;28;20036;-62
2022/04/19 13:00:35;;;;;;;0.60;0.60;;;23.50;35.50;;;;;;5086304;28;20399;-62
2022/04/19 13:03:01;;;;;;;0.70;0.70;;;23.60;35.60;;;;;;5079181;28;20120;-64
2022/04/19 16:53:47;;;;;;;0.50;0.50;;;22.10;29.70;;;;;;5159596;27;20358;-59
2022/04/19 16:56:13;;;;;;;0.43;0.40;;;21.90;30.70;;;;;;5116511;27;20452;-59
2022/04/19 16:58:39;;;;;;;0.70;0.70;;;21.80;30.90;;;;;;5113677;27;20413;-59
2022/04/19 17:01:06;;;;;;;0.43;0.43;;;21.90;31.20;;;;;;5129399;27;20019;-59
2022/04/19 17:06:16;;;;;;;0.82;0.47;;;22.00;30.90;;;;;;5127828;27;20051;-59
2022/04/19 17:08:42;;;;;;;1.60;0.90;;;22.00;31.10;;;;;;5112638;27;20032;-59
2022/04/19 17:11:08;;;;;;;0.57;0.57;;;22.10;31.30;;;;;;5121606;27;20539;-61
2022/04/19 17:13:34;;;;;;;2.05;0.60;;;22.00;31.10;;;;;;5121028;27;20044;-60
2022/04/19 17:15:59;;;;;;;0.40;0.40;;;22.00;31.00;;;;;;5112915;27;20168;-59
2022/04/19 17:18:25;;;;;;;0.60;0.50;;;22.00;31.10;;;;;;5126134;27;20462;-60